sensor_id;sensor_type;location;lat;lon;timestamp;pressure;altitude;pressure_sealevel;temperature;humidity
56270;BME280;42176;43.240;27.880;2023-04-06T00:01:01;99809.91;;;5.03;100.00
56270;BME280;42176;43.240;27.880;2023-04-06T00:03:26;99819.44;;;5.29;100.00
56270;BME280;42176;43.240;27.880;2023-04-06T00:05:51;99819.72;;;4.64;100.00
56270;BME280;42176;43.240;27.880;2023-04-06T00:08:17;99802.19;;;4.71;100.00
56270;BME280;42176;43.240;27.880;2023-04-06T00:10:42;99818.72;;;4.90;100.00
56270;BME280;42176;43.240;27.880;2023-04-06T00:13:08;99823.06;;;5.05;99.62
56270;BME280;42176;43.240;27.880;2023-04-06T00:15:34;99807.53;;;4.32;100.00
56270;BME280;42176;43.240;27.880;2023-04-06T00:17:59;99808.34;;;4.59;100.00
56270;BME280;42176;43.240;27.880;2023-04-06T00:20:25;99808.25;;;4.82;100.00
56270;BME280;42176;43.240;27.880;2023-04-06T00:22:51;99816.97;;;4.95;98.15
56270;BME280;42176;43.240;27.880;2023-04-06T00:25:16;99816.94;;;5.01;96.93
56270;BME280;42176;43.240;27.880;2023-04-06T00:27:42;99823.22;;;4.57;100.00
56270;BME280;42176;43.240;27.880;2023-04-06T00:30:08;99816.19;;;4.70;100.00
56270;BME280;42176;43.240;27.880;2023-04-06T00:32:34;99811.72;;;4.92;100.00
56270;BME280;42176;43.240;27.880;2023-04-06T00:35:01;99815.38;;;4.51;100.00
56270;BME280;42176;43.240;27.880;2023-04-06T00:37:26;99818.88;;;4.33;100.00
56270;BME280;42176;43.240;27.880;2023-04-06T00:39:52;99815.34;;;4.54;100.00
56270;BME280;42176;43.240;27.880;2023-04-06T00:42:17;99812.63;;;4.85;100.00
56270;BME280;42176;43.240;27.880;2023-04-06T00:44:50;99807.53;;;4.32;100.00
56270;BME280;42176;43.240;27.880;2023-04-06T00:47:15;99802.25;;;4.43;100.00
56270;BME280;42176;43.240;27.880;2023-04-06T00:49:41;99803.94;;;4.60;100.00
56270;BME280;42176;43.240;27.880;2023-04-06T00:52:06;99795.97;;;4.95;98.47
56270;BME280;42176;43.240;27.880;2023-04-06T00:54:32;99795.31;;;4.19;100.00
56270;BME280;42176;43.240;27.880;2023-04-06T00:56:57;99789.16;;;4.29;100.00
56270;BME280;42176;43.240;27.880;2023-04-06T00:59:23;99775.13;;;4.39;100.00
56270;BME280;42176;43.240;27.880;2023-04-06T01:01:48;99787.31;;;4.65;96.93
56270;BME280;42176;43.240;27.880;2023-04-06T01:04:14;99791.84;;;3.96;99.94
56270;BME280;42176;43.240;27.880;2023-04-06T01:06:40;99792.66;;;4.14;100.00
56270;BME280;42176;43.240;27.880;2023-04-06T01:09:06;99787.41;;;4.28;100.00
56270;BME280;42176;43.240;27.880;2023-04-06T01:11:31;99785.59;;;4.52;95.71
56270;BME280;42176;43.240;27.880;2023-04-06T01:13:57;99783.06;;;3.97;98.02
56270;BME280;42176;43.240;27.880;2023-04-06T01:16:23;99789.19;;;4.17;98.15
56270;BME280;42176;43.240;27.880;2023-04-06T01:18:49;99787.41;;;4.31;96.76
56270;BME280;42176;43.240;27.880;2023-04-06T01:21:16;99789.13;;;4.38;94.17
56270;BME280;42176;43.240;27.880;2023-04-06T01:23:43;99760.34;;;3.79;97.91
56270;BME280;42176;43.240;27.880;2023-04-06T01:26:10;99771.69;;;4.13;98.12
56270;BME280;42176;43.240;27.880;2023-04-06T01:28:36;99780.44;;;4.18;96.06
56270;BME280;42176;43.240;27.880;2023-04-06T01:31:03;99775.16;;;4.30;94.07
56270;BME280;42176;43.240;27.880;2023-04-06T01:33:28;99757.72;;;3.79;97.23
56270;BME280;42176;43.240;27.880;2023-04-06T01:35:54;99775.19;;;4.08;96.91
56270;BME280;42176;43.240;27.880;2023-04-06T01:38:19;99760.31;;;4.28;96.11
56270;BME280;42176;43.240;27.880;2023-04-06T01:40:45;99762.91;;;4.29;94.80
56270;BME280;42176;43.240;27.880;2023-04-06T01:43:11;99755.03;;;4.31;93.71
56270;BME280;42176;43.240;27.880;2023-04-06T01:45:36;99736.72;;;4.20;93.44
56270;BME280;42176;43.240;27.880;2023-04-06T01:48:01;99751.53;;;4.41;93.83
56270;BME280;42176;43.240;27.880;2023-04-06T01:50:27;99757.59;;;4.54;92.07
56270;BME280;42176;43.240;27.880;2023-04-06T01:52:52;99758.59;;;4.11;91.87
56270;BME280;42176;43.240;27.880;2023-04-06T01:55:18;99764.72;;;3.68;97.55
56270;BME280;42176;43.240;27.880;2023-04-06T01:57:43;99754.22;;;3.93;97.50
56270;BME280;42176;43.240;27.880;2023-04-06T02:00:09;99762.97;;;4.01;97.10
56270;BME280;42176;43.240;27.880;2023-04-06T02:02:35;99752.47;;;4.20;95.32
56270;BME280;42176;43.240;27.880;2023-04-06T02:05:01;99751.59;;;4.15;93.18
56270;BME280;42176;43.240;27.880;2023-04-06T02:07:26;99757.72;;;3.64;97.58
56270;BME280;42176;43.240;27.880;2023-04-06T02:09:54;99755.97;;;3.75;97.50
56270;BME280;42176;43.240;27.880;2023-04-06T02:12:20;99760.38;;;3.89;97.02
56270;BME280;42176;43.240;27.880;2023-04-06T02:14:46;99754.19;;;4.11;93.89
56270;BME280;42176;43.240;27.880;2023-04-06T02:17:11;99734.16;;;3.34;98.22
56270;BME280;42176;43.240;27.880;2023-04-06T02:19:36;99753.38;;;3.61;99.41
56270;BME280;42176;43.240;27.880;2023-04-06T02:22:02;99743.75;;;3.80;97.63
56270;BME280;42176;43.240;27.880;2023-04-06T02:24:27;99755.97;;;3.94;96.82
56270;BME280;42176;43.240;27.880;2023-04-06T02:26:53;99759.47;;;3.93;95.12
56270;BME280;42176;43.240;27.880;2023-04-06T02:29:18;99756.00;;;3.72;98.71
56270;BME280;42176;43.240;27.880;2023-04-06T02:31:44;99754.25;;;3.87;99.58
56270;BME280;42176;43.240;27.880;2023-04-06T02:34:10;99756.78;;;4.27;95.11
56270;BME280;42176;43.240;27.880;2023-04-06T02:36:37;99735.88;;;3.43;99.01
56270;BME280;42176;43.240;27.880;2023-04-06T02:39:02;99757.75;;;3.67;100.00
56270;BME280;42176;43.240;27.880;2023-04-06T02:41:28;99748.13;;;3.80;99.25
56270;BME280;42176;43.240;27.880;2023-04-06T02:43:54;99745.47;;;3.97;99.41
56270;BME280;42176;43.240;27.880;2023-04-06T02:46:19;99748.06;;;4.14;98.01
56270;BME280;42176;43.240;27.880;2023-04-06T02:48:45;99748.06;;;4.26;97.10
56270;BME280;42176;43.240;27.880;2023-04-06T02:51:10;99740.16;;;4.34;93.79
56270;BME280;42176;43.240;27.880;2023-04-06T02:53:36;99749.00;;;3.56;100.00
56270;BME280;42176;43.240;27.880;2023-04-06T02:56:01;99754.22;;;3.34;100.00
56270;BME280;42176;43.240;27.880;2023-04-06T02:58:27;99761.22;;;3.54;100.00
56270;BME280;42176;43.240;27.880;2023-04-06T03:00:52;99755.09;;;3.69;100.00
56270;BME280;42176;43.240;27.880;2023-04-06T03:03:18;99744.59;;;4.03;100.00
56270;BME280;42176;43.240;27.880;2023-04-06T03:05:43;99743.75;;;3.74;98.96
56270;BME280;42176;43.240;27.880;2023-04-06T03:08:08;99749.00;;;3.65;100.00
56270;BME280;42176;43.240;27.880;2023-04-06T03:10:34;99748.13;;;3.81;100.00
56270;BME280;42176;43.240;27.880;2023-04-06T03:13:00;99748.94;;;4.13;100.00
56270;BME280;42176;43.240;27.880;2023-04-06T03:15:25;99752.50;;;3.73;99.22
56270;BME280;42176;43.240;27.880;2023-04-06T03:17:51;99749.88;;;3.65;100.00
56270;BME280;42176;43.240;27.880;2023-04-06T03:20:16;99749.00;;;3.87;100.00
56270;BME280;42176;43.240;27.880;2023-04-06T03:22:42;99750.72;;;4.00;100.00
56270;BME280;42176;43.240;27.880;2023-04-06T03:25:07;99762.91;;;4.29;96.51
56270;BME280;42176;43.240;27.880;2023-04-06T03:27:33;99762.97;;;3.64;99.28
56270;BME280;42176;43.240;27.880;2023-04-06T03:29:58;99756.00;;;3.85;100.00
56270;BME280;42176;43.240;27.880;2023-04-06T03:32:24;99750.72;;;4.00;100.00
56270;BME280;42176;43.240;27.880;2023-04-06T03:34:49;99752.44;;;4.10;98.88
56270;BME280;42176;43.240;27.880;2023-04-06T03:37:15;99750.75;;;3.88;96.60
56270;BME280;42176;43.240;27.880;2023-04-06T03:39:40;99742.00;;;3.33;100.00
56270;BME280;42176;43.240;27.880;2023-04-06T03:42:06;99760.34;;;3.61;100.00
56270;BME280;42176;43.240;27.880;2023-04-06T03:44:31;99762.97;;;3.79;100.00
56270;BME280;42176;43.240;27.880;2023-04-06T03:46:57;99755.06;;;4.15;98.66
56270;BME280;42176;43.240;27.880;2023-04-06T03:49:22;99762.97;;;3.45;100.00
56270;BME280;42176;43.240;27.880;2023-04-06T03:51:48;99761.22;;;3.63;100.00
56270;BME280;42176;43.240;27.880;2023-04-06T03:54:13;99759.47;;;3.74;100.00
56270;BME280;42176;43.240;27.880;2023-04-06T03:56:38;99748.97;;;4.18;98.90
56270;BME280;42176;43.240;27.880;2023-04-06T03:59:04;99761.22;;;3.66;100.00
56270;BME280;42176;43.240;27.880;2023-04-06T04:01:30;99758.63;;;3.80;100.00
56270;BME280;42176;43.240;27.880;2023-04-06T04:03:55;99758.59;;;3.91;100.00
56270;BME280;42176;43.240;27.880;2023-04-06T04:06:21;99762.06;;;4.15;98.55
56270;BME280;42176;43.240;27.880;2023-04-06T04:08:46;99756.00;;;3.54;100.00
56270;BME280;42176;43.240;27.880;2023-04-06T04:11:12;99756.00;;;3.72;100.00
56270;BME280;42176;43.240;27.880;2023-04-06T04:13:37;99745.47;;;3.94;100.00
56270;BME280;42176;43.240;27.880;2023-04-06T04:16:03;99764.72;;;3.65;100.00
56270;BME280;42176;43.240;27.880;2023-04-06T04:18:28;99766.47;;;3.78;100.00
56270;BME280;42176;43.240;27.880;2023-04-06T04:20:54;99766.44;;;4.09;100.00
56270;BME280;42176;43.240;27.880;2023-04-06T04:23:19;99769.91;;;4.33;99.90
56270;BME280;42176;43.240;27.880;2023-04-06T04:25:45;99770.72;;;4.46;99.47
56270;BME280;42176;43.240;27.880;2023-04-06T04:28:10;99766.25;;;4.82;96.97
56270;BME280;42176;43.240;27.880;2023-04-06T04:30:36;99757.66;;;4.35;94.63
56270;BME280;42176;43.240;27.880;2023-04-06T04:33:01;99760.34;;;4.01;100.00
56270;BME280;42176;43.240;27.880;2023-04-06T04:35:26;99769.91;;;4.33;100.00
56270;BME280;42176;43.240;27.880;2023-04-06T04:37:52;99762.84;;;4.57;97.78
56270;BME280;42176;43.240;27.880;2023-04-06T04:40:18;99779.41;;;4.71;96.91
56270;BME280;42176;43.240;27.880;2023-04-06T04:42:43;99760.91;;;4.95;95.36
56270;BME280;42176;43.240;27.880;2023-04-06T04:45:09;99761.78;;;5.03;93.05
56270;BME280;42176;43.240;27.880;2023-04-06T04:47:34;99769.56;;;5.17;92.42
56270;BME280;42176;43.240;27.880;2023-04-06T04:50:00;99770.31;;;5.34;90.64
56270;BME280;42176;43.240;27.880;2023-04-06T04:52:25;99741.91;;;4.32;92.39
56270;BME280;42176;43.240;27.880;2023-04-06T04:54:51;99770.84;;;3.86;97.88
56270;BME280;42176;43.240;27.880;2023-04-06T04:57:16;99766.47;;;4.00;99.75
56270;BME280;42176;43.240;27.880;2023-04-06T04:59:43;99776.91;;;4.34;97.66
56270;BME280;42176;43.240;27.880;2023-04-06T05:02:08;99776.84;;;4.54;95.25
56270;BME280;42176;43.240;27.880;2023-04-06T05:04:35;99773.28;;;4.72;93.56
56270;BME280;42176;43.240;27.880;2023-04-06T05:07:07;99770.59;;;4.86;93.16
56270;BME280;42176;43.240;27.880;2023-04-06T05:09:33;99760.84;;;5.09;91.10
56270;BME280;42176;43.240;27.880;2023-04-06T05:11:59;99781.72;;;5.30;88.90
56270;BME280;42176;43.240;27.880;2023-04-06T05:14:26;99771.53;;;4.68;88.95
56270;BME280;42176;43.240;27.880;2023-04-06T05:16:51;99769.94;;;4.08;94.28
56270;BME280;42176;43.240;27.880;2023-04-06T05:19:17;99771.63;;;4.37;94.21
56270;BME280;42176;43.240;27.880;2023-04-06T05:21:43;99761.06;;;4.62;92.77
56270;BME280;42176;43.240;27.880;2023-04-06T05:24:08;99760.28;;;4.29;91.36
56270;BME280;42176;43.240;27.880;2023-04-06T05:26:34;99770.84;;;4.09;95.76
56270;BME280;42176;43.240;27.880;2023-04-06T05:28:59;99733.19;;;4.21;95.12
56270;BME280;42176;43.240;27.880;2023-04-06T05:31:25;99767.97;;;4.85;91.93
56270;BME280;42176;43.240;27.880;2023-04-06T05:33:50;99762.88;;;4.41;89.45
56270;BME280;42176;43.240;27.880;2023-04-06T05:36:16;99764.66;;;4.30;92.91
56270;BME280;42176;43.240;27.880;2023-04-06T05:38:41;99769.81;;;4.58;91.36
56270;BME280;42176;43.240;27.880;2023-04-06T05:41:07;99756.59;;;4.81;89.81
56270;BME280;42176;43.240;27.880;2023-04-06T05:43:32;99760.88;;;5.02;87.61
56270;BME280;42176;43.240;27.880;2023-04-06T05:45:58;99762.56;;;5.16;86.02
56270;BME280;42176;43.240;27.880;2023-04-06T05:48:23;99755.50;;;5.27;84.83
56270;BME280;42176;43.240;27.880;2023-04-06T05:50:49;99757.16;;;5.44;83.74
56270;BME280;42176;43.240;27.880;2023-04-06T05:53:21;99752.34;;;4.54;85.63
56270;BME280;42176;43.240;27.880;2023-04-06T05:55:47;99744.56;;;4.23;91.53
56270;BME280;42176;43.240;27.880;2023-04-06T05:58:12;99749.69;;;4.57;90.70
56270;BME280;42176;43.240;27.880;2023-04-06T06:00:38;99752.28;;;4.69;87.40
56270;BME280;42176;43.240;27.880;2023-04-06T06:03:03;99752.47;;;4.14;91.87
56270;BME280;42176;43.240;27.880;2023-04-06T06:05:30;99750.59;;;4.53;90.83
56270;BME280;42176;43.240;27.880;2023-04-06T06:07:56;99746.09;;;4.87;88.65
56270;BME280;42176;43.240;27.880;2023-04-06T06:10:21;99745.09;;;5.12;85.64
56270;BME280;42176;43.240;27.880;2023-04-06T06:12:47;99748.44;;;5.32;83.29
56270;BME280;42176;43.240;27.880;2023-04-06T06:15:12;99749.13;;;5.61;81.56
56270;BME280;42176;43.240;27.880;2023-04-06T06:17:38;99747.16;;;5.86;80.05
56270;BME280;42176;43.240;27.880;2023-04-06T06:20:06;99744.41;;;6.05;78.66
56270;BME280;42176;43.240;27.880;2023-04-06T06:22:31;99744.31;;;6.11;78.07
56270;BME280;42176;43.240;27.880;2023-04-06T06:24:57;99742.53;;;6.13;78.29
56270;BME280;42176;43.240;27.880;2023-04-06T06:27:22;99753.03;;;6.16;77.91
56270;BME280;42176;43.240;27.880;2023-04-06T06:29:48;99738.03;;;6.26;76.48
56270;BME280;42176;43.240;27.880;2023-04-06T06:32:13;99740.34;;;6.54;75.80
56270;BME280;42176;43.240;27.880;2023-04-06T06:34:39;99747.81;;;6.15;77.18
56270;BME280;42176;43.240;27.880;2023-04-06T06:37:05;99739.72;;;5.27;82.72
56270;BME280;42176;43.240;27.880;2023-04-06T06:39:31;99753.97;;;4.86;85.61
56270;BME280;42176;43.240;27.880;2023-04-06T06:41:56;99751.06;;;5.37;84.81
56270;BME280;42176;43.240;27.880;2023-04-06T06:44:22;99759.44;;;5.84;82.87
56270;BME280;42176;43.240;27.880;2023-04-06T06:46:48;99734.25;;;6.49;78.76
56270;BME280;42176;43.240;27.880;2023-04-06T06:49:13;99745.69;;;6.49;75.04
56270;BME280;42176;43.240;27.880;2023-04-06T06:51:40;99739.28;;;5.83;79.90
56270;BME280;42176;43.240;27.880;2023-04-06T06:54:05;99730.47;;;6.70;76.65
56270;BME280;42176;43.240;27.880;2023-04-06T06:56:31;99735.72;;;7.92;69.61
56270;BME280;42176;43.240;27.880;2023-04-06T06:58:56;99736.16;;;8.16;64.23
56270;BME280;42176;43.240;27.880;2023-04-06T07:01:22;99737.06;;;7.63;66.49
56270;BME280;42176;43.240;27.880;2023-04-06T07:03:47;99733.84;;;9.31;61.61
56270;BME280;42176;43.240;27.880;2023-04-06T07:06:12;99717.59;;;10.15;55.64
56270;BME280;42176;43.240;27.880;2023-04-06T07:08:38;99725.19;;;9.24;56.84
56270;BME280;42176;43.240;27.880;2023-04-06T07:11:03;99735.13;;;8.72;59.88
56270;BME280;42176;43.240;27.880;2023-04-06T07:13:29;99734.84;;;9.97;57.20
56270;BME280;42176;43.240;27.880;2023-04-06T07:15:54;99731.56;;;10.87;53.13
56270;BME280;42176;43.240;27.880;2023-04-06T07:18:20;99729.88;;;12.47;47.87
56270;BME280;42176;43.240;27.880;2023-04-06T07:20:46;99720.75;;;10.93;52.01
56270;BME280;42176;43.240;27.880;2023-04-06T07:23:11;99718.75;;;13.31;46.99
56270;BME280;42176;43.240;27.880;2023-04-06T07:25:37;99724.66;;;15.78;40.77
56270;BME280;42176;43.240;27.880;2023-04-06T07:28:03;99718.78;;;17.25;37.34
56270;BME280;42176;43.240;27.880;2023-04-06T07:30:29;99707.44;;;18.72;35.07
56270;BME280;42176;43.240;27.880;2023-04-06T07:32:55;99711.44;;;18.79;34.84
56270;BME280;42176;43.240;27.880;2023-04-06T07:35:23;99694.66;;;18.90;33.46
56270;BME280;42176;43.240;27.880;2023-04-06T07:37:49;99708.19;;;18.89;32.13
56270;BME280;42176;43.240;27.880;2023-04-06T07:40:15;99695.56;;;15.54;38.34
56270;BME280;42176;43.240;27.880;2023-04-06T07:42:40;99710.56;;;17.28;36.60
56270;BME280;42176;43.240;27.880;2023-04-06T07:45:06;99707.50;;;18.41;34.75
56270;BME280;42176;43.240;27.880;2023-04-06T07:47:31;99711.38;;;18.52;33.88
56270;BME280;42176;43.240;27.880;2023-04-06T07:49:57;99697.84;;;18.53;33.62
56270;BME280;42176;43.240;27.880;2023-04-06T07:52:22;99713.06;;;19.11;32.73
56270;BME280;42176;43.240;27.880;2023-04-06T07:54:48;99703.78;;;19.44;32.30
56270;BME280;42176;43.240;27.880;2023-04-06T07:57:14;99704.16;;;18.96;32.82
56270;BME280;42176;43.240;27.880;2023-04-06T07:59:40;99706.59;;;17.98;34.15
56270;BME280;42176;43.240;27.880;2023-04-06T08:02:05;99698.72;;;16.50;36.05
56270;BME280;42176;43.240;27.880;2023-04-06T08:04:31;99712.44;;;15.55;37.79
56270;BME280;42176;43.240;27.880;2023-04-06T08:06:56;99716.94;;;12.61;43.62
56270;BME280;42176;43.240;27.880;2023-04-06T08:09:22;99715.72;;;10.20;49.73
56270;BME280;42176;43.240;27.880;2023-04-06T08:11:47;99714.69;;;11.18;49.83
56270;BME280;42176;43.240;27.880;2023-04-06T08:14:14;99708.56;;;11.71;48.21
56270;BME280;42176;43.240;27.880;2023-04-06T08:16:40;99695.78;;;13.06;45.59
56270;BME280;42176;43.240;27.880;2023-04-06T08:19:06;99688.84;;;12.54;45.62
56270;BME280;42176;43.240;27.880;2023-04-06T08:21:34;99713.63;;;11.79;47.65
56270;BME280;42176;43.240;27.880;2023-04-06T08:24:00;99718.63;;;11.61;48.90
56270;BME280;42176;43.240;27.880;2023-04-06T08:26:26;99706.97;;;12.68;45.97
56270;BME280;42176;43.240;27.880;2023-04-06T08:28:51;99705.13;;;12.92;46.67
56270;BME280;42176;43.240;27.880;2023-04-06T08:31:17;99709.00;;;11.84;46.83
56270;BME280;42176;43.240;27.880;2023-04-06T08:33:42;99707.03;;;10.78;52.01
56270;BME280;42176;43.240;27.880;2023-04-06T08:36:09;99713.50;;;11.55;50.30
56270;BME280;42176;43.240;27.880;2023-04-06T08:38:35;99704.63;;;11.56;49.35
56270;BME280;42176;43.240;27.880;2023-04-06T08:41:07;99706.41;;;9.71;54.81
56270;BME280;42176;43.240;27.880;2023-04-06T08:43:34;99702.38;;;10.57;54.52
56270;BME280;42176;43.240;27.880;2023-04-06T08:46:02;99691.66;;;11.73;49.94
56270;BME280;42176;43.240;27.880;2023-04-06T08:48:28;99700.94;;;13.09;46.51
56270;BME280;42176;43.240;27.880;2023-04-06T08:50:54;99702.56;;;13.13;46.23
56270;BME280;42176;43.240;27.880;2023-04-06T08:53:20;99693.16;;;14.33;44.59
56270;BME280;42176;43.240;27.880;2023-04-06T08:55:45;99693.75;;;15.18;40.86
56270;BME280;42176;43.240;27.880;2023-04-06T08:58:11;99701.09;;;13.28;45.38
56270;BME280;42176;43.240;27.880;2023-04-06T09:00:38;99688.75;;;13.49;45.93
56270;BME280;42176;43.240;27.880;2023-04-06T09:03:05;99687.19;;;14.28;43.12
56270;BME280;42176;43.240;27.880;2023-04-06T09:05:32;99704.78;;;13.70;43.45
56270;BME280;42176;43.240;27.880;2023-04-06T09:07:57;99694.81;;;11.31;48.92
56270;BME280;42176;43.240;27.880;2023-04-06T09:10:23;99692.13;;;11.04;50.88
56270;BME280;42176;43.240;27.880;2023-04-06T09:12:50;99695.91;;;11.24;50.76
56270;BME280;42176;43.240;27.880;2023-04-06T09:15:20;99702.03;;;11.26;50.01
56270;BME280;42176;43.240;27.880;2023-04-06T09:17:47;99709.56;;;9.85;54.33
56270;BME280;42176;43.240;27.880;2023-04-06T09:20:12;99714.38;;;9.69;56.55
56270;BME280;42176;43.240;27.880;2023-04-06T09:22:39;99707.53;;;9.95;55.59
56270;BME280;42176;43.240;27.880;2023-04-06T09:25:06;99712.06;;;9.92;55.96
56270;BME280;42176;43.240;27.880;2023-04-06T09:27:36;99716.22;;;9.29;58.67
56270;BME280;42176;43.240;27.880;2023-04-06T09:30:06;99709.22;;;9.98;56.41
56270;BME280;42176;43.240;27.880;2023-04-06T09:32:32;99696.91;;;10.30;53.65
56270;BME280;42176;43.240;27.880;2023-04-06T09:35:10;99717.53;;;10.18;54.63
56270;BME280;42176;43.240;27.880;2023-04-06T09:37:35;99710.72;;;9.39;57.65
56270;BME280;42176;43.240;27.880;2023-04-06T09:40:05;99714.22;;;10.10;56.14
56270;BME280;42176;43.240;27.880;2023-04-06T09:42:31;99704.28;;;10.51;54.04
56270;BME280;42176;43.240;27.880;2023-04-06T09:44:56;99709.06;;;10.99;52.66
56270;BME280;42176;43.240;27.880;2023-04-06T09:47:22;99708.09;;;9.73;55.18
56270;BME280;42176;43.240;27.880;2023-04-06T09:49:56;99709.63;;;9.82;56.59
56270;BME280;42176;43.240;27.880;2023-04-06T09:52:25;99697.41;;;10.44;55.89
56270;BME280;42176;43.240;27.880;2023-04-06T09:54:52;99702.63;;;10.77;52.38
56270;BME280;42176;43.240;27.880;2023-04-06T09:57:38;99697.06;;;9.20;58.04
56270;BME280;42176;43.240;27.880;2023-04-06T10:00:07;99710.41;;;9.51;59.02
56270;BME280;42176;43.240;27.880;2023-04-06T10:03:00;99701.06;;;10.07;56.29
56270;BME280;42176;43.240;27.880;2023-04-06T10:05:55;99705.75;;;9.61;56.78
56270;BME280;42176;43.240;27.880;2023-04-06T10:08:24;99693.34;;;9.65;56.77
56270;BME280;42176;43.240;27.880;2023-04-06T10:10:53;99705.09;;;10.20;55.47
56270;BME280;42176;43.240;27.880;2023-04-06T10:13:19;99702.91;;;9.69;57.27
56270;BME280;42176;43.240;27.880;2023-04-06T10:15:45;99701.09;;;9.35;59.88
56270;BME280;42176;43.240;27.880;2023-04-06T10:18:10;99693.28;;;10.01;55.57
56270;BME280;42176;43.240;27.880;2023-04-06T10:20:46;99699.50;;;10.64;54.56
56270;BME280;42176;43.240;27.880;2023-04-06T10:23:36;99708.53;;;9.56;57.82
56270;BME280;42176;43.240;27.880;2023-04-06T10:26:04;99712.06;;;10.25;56.33
56270;BME280;42176;43.240;27.880;2023-04-06T10:28:33;99696.88;;;10.93;53.70
56270;BME280;42176;43.240;27.880;2023-04-06T10:31:00;99698.09;;;11.39;52.45
56270;BME280;42176;43.240;27.880;2023-04-06T10:33:27;99694.09;;;10.36;54.58
56270;BME280;42176;43.240;27.880;2023-04-06T10:35:53;99701.06;;;10.40;55.16
56270;BME280;42176;43.240;27.880;2023-04-06T10:38:19;99689.13;;;10.87;54.75
56270;BME280;42176;43.240;27.880;2023-04-06T10:40:49;99690.38;;;10.43;55.64
56270;BME280;42176;43.240;27.880;2023-04-06T10:43:19;99696.44;;;9.81;59.19
56270;BME280;42176;43.240;27.880;2023-04-06T10:45:56;99697.53;;;10.71;57.06
56270;BME280;42176;43.240;27.880;2023-04-06T10:48:22;99689.22;;;10.84;54.77
56270;BME280;42176;43.240;27.880;2023-04-06T10:50:50;99697.50;;;10.08;55.56
56270;BME280;42176;43.240;27.880;2023-04-06T10:53:25;99694.44;;;10.87;55.03
56270;BME280;42176;43.240;27.880;2023-04-06T10:55:52;99677.97;;;11.32;52.37
56270;BME280;42176;43.240;27.880;2023-04-06T10:58:19;99671.59;;;10.51;53.59
56270;BME280;42176;43.240;27.880;2023-04-06T11:00:49;99693.41;;;10.28;56.41
56270;BME280;42176;43.240;27.880;2023-04-06T11:03:15;99678.78;;;10.77;54.03
56270;BME280;42176;43.240;27.880;2023-04-06T11:05:48;99683.47;;;11.26;52.39
56270;BME280;42176;43.240;27.880;2023-04-06T11:11:13;99691.72;;;10.25;56.19
56270;BME280;42176;43.240;27.880;2023-04-06T11:13:55;99685.78;;;10.80;54.74
56270;BME280;42176;43.240;27.880;2023-04-06T11:16:34;99692.56;;;11.19;52.41
56270;BME280;42176;43.240;27.880;2023-04-06T11:19:04;99683.50;;;10.36;54.30
56270;BME280;42176;43.240;27.880;2023-04-06T11:21:37;99679.53;;;9.86;57.60
56270;BME280;42176;43.240;27.880;2023-04-06T11:24:10;99687.56;;;10.49;55.42
56270;BME280;42176;43.240;27.880;2023-04-06T11:29:05;99679.44;;;10.23;55.13
56270;BME280;42176;43.240;27.880;2023-04-06T11:31:30;99685.19;;;10.40;55.96
56270;BME280;42176;43.240;27.880;2023-04-06T11:33:56;99687.84;;;10.99;54.24
56270;BME280;42176;43.240;27.880;2023-04-06T11:36:22;99658.25;;;11.41;52.70
56270;BME280;42176;43.240;27.880;2023-04-06T11:38:47;99678.31;;;11.50;51.28
56270;BME280;42176;43.240;27.880;2023-04-06T11:41:13;99665.94;;;10.32;54.54
56270;BME280;42176;43.240;27.880;2023-04-06T11:43:46;99661.88;;;10.81;54.34
56270;BME280;42176;43.240;27.880;2023-04-06T11:46:17;99662.00;;;11.34;53.28
56270;BME280;42176;43.240;27.880;2023-04-06T11:48:46;99659.59;;;10.69;52.77
56270;BME280;42176;43.240;27.880;2023-04-06T11:51:12;99666.63;;;10.07;55.05
56270;BME280;42176;43.240;27.880;2023-04-06T11:53:46;99660.91;;;10.54;54.34
56270;BME280;42176;43.240;27.880;2023-04-06T11:56:22;99658.84;;;10.94;53.72
56270;BME280;42176;43.240;27.880;2023-04-06T11:58:48;99663.81;;;11.33;50.61
56270;BME280;42176;43.240;27.880;2023-04-06T12:01:14;99651.03;;;10.28;55.44
56270;BME280;42176;43.240;27.880;2023-04-06T12:03:40;99654.00;;;10.78;53.68
56270;BME280;42176;43.240;27.880;2023-04-06T12:06:05;99645.50;;;11.24;52.85
56270;BME280;42176;43.240;27.880;2023-04-06T12:08:31;99648.31;;;10.91;52.82
56270;BME280;42176;43.240;27.880;2023-04-06T12:10:56;99655.78;;;10.16;54.27
56270;BME280;42176;43.240;27.880;2023-04-06T12:13:21;99649.50;;;10.82;54.50
56270;BME280;42176;43.240;27.880;2023-04-06T12:15:47;99644.59;;;10.68;52.33
56270;BME280;42176;43.240;27.880;2023-04-06T12:18:13;99660.44;;;10.08;55.95
56270;BME280;42176;43.240;27.880;2023-04-06T12:20:38;99650.81;;;10.67;53.87
56270;BME280;42176;43.240;27.880;2023-04-06T12:23:04;99651.50;;;10.74;53.29
56270;BME280;42176;43.240;27.880;2023-04-06T12:25:29;99652.41;;;10.11;55.62
56270;BME280;42176;43.240;27.880;2023-04-06T12:27:55;99657.94;;;10.65;54.25
56270;BME280;42176;43.240;27.880;2023-04-06T12:30:21;99654.31;;;10.98;53.12
56270;BME280;42176;43.240;27.880;2023-04-06T12:32:46;99637.94;;;9.90;55.57
56270;BME280;42176;43.240;27.880;2023-04-06T12:35:12;99648.22;;;10.34;56.25
56270;BME280;42176;43.240;27.880;2023-04-06T12:37:40;99646.88;;;10.80;53.39
56270;BME280;42176;43.240;27.880;2023-04-06T12:40:06;99665.53;;;9.81;54.51
56270;BME280;42176;43.240;27.880;2023-04-06T12:42:32;99665.31;;;9.90;57.14
56270;BME280;42176;43.240;27.880;2023-04-06T12:44:57;99658.41;;;10.49;54.20
56270;BME280;42176;43.240;27.880;2023-04-06T12:47:23;99659.94;;;9.94;54.14
56270;BME280;42176;43.240;27.880;2023-04-06T12:49:49;99658.97;;;8.89;59.64
56270;BME280;42176;43.240;27.880;2023-04-06T12:52:15;99661.81;;;9.55;57.97
56270;BME280;42176;43.240;27.880;2023-04-06T12:54:41;99656.75;;;10.14;55.21
56270;BME280;42176;43.240;27.880;2023-04-06T12:57:07;99663.34;;;9.64;55.22